Time;durP1;ratioP1;P1;durP2;ratioP2;P2;SDS_P1;SDS_P2;PMS_P1;PMS_P2;Temp;Humidity;BMP_temperature;BMP_pressure;BME280_temperature;BME280_humidity;BME280_pressure;Samples;Min_cycle;Max_cycle;Signal;HPM_P1;HPM_P2
2023/01/30 00:08:48;;;;;;;36.30;16.33;;;;;;;-1.27;100.00;101137.69;20887291;28;20103;-71
2023/01/30 00:18:49;;;;;;;36.72;16.77;;;;;;;-1.12;100.00;101143.50;20887278;28;20061;-72
2023/01/30 00:28:50;;;;;;;38.10;17.60;;;;;;;-1.15;100.00;101169.03;20875349;28;20206;-72
2023/01/30 00:38:52;;;;;;;37.10;16.80;;;;;;;-1.05;100.00;101176.38;20805909;28;20200;-74
2023/01/30 00:48:53;;;;;;;33.17;16.08;;;;;;;-0.98;100.00;101182.66;20807908;28;20049;-72
2023/01/30 00:58:54;;;;;;;32.65;15.45;;;;;;;-0.70;100.00;101175.28;20815390;28;20053;-73
2023/01/30 01:09:13;;;;;;;29.00;12.90;;;;;;;-0.49;100.00;101172.72;20820365;28;20049;-74
2023/01/30 01:19:32;;;;;;;29.08;13.75;;;;;;;-0.24;100.00;101160.84;20817977;28;20272;-74
2023/01/30 01:29:51;;;;;;;34.08;14.88;;;;;;;-0.05;100.00;101123.06;20851789;28;20037;-73
2023/01/30 01:50:48;;;;;;;35.63;15.98;;;;;;;-0.48;100.00;101112.75;20905540;28;20041;-72
2023/01/30 02:01:07;;;;;;;34.22;14.95;;;;;;;-0.76;100.00;101108.19;20898349;28;20444;-72
2023/01/30 02:11:08;;;;;;;33.78;15.48;;;;;;;-0.84;100.00;101086.44;20893669;28;20477;-73
2023/01/30 02:21:09;;;;;;;35.35;16.25;;;;;;;-0.83;100.00;101068.47;20898428;28;20059;-72
2023/01/30 02:31:11;;;;;;;35.13;16.45;;;;;;;-0.85;100.00;101040.97;20894091;28;20080;-73
2023/01/30 02:41:12;;;;;;;42.78;16.70;;;;;;;-0.87;100.00;100940.63;20898525;28;20052;-73
2023/01/30 02:51:13;;;;;;;36.97;15.00;;;;;;;-0.83;100.00;100982.78;20893178;28;20501;-71
2023/01/30 03:01:32;;;;;;;37.40;15.60;;;;;;;-0.67;100.00;100931.16;20896335;28;20049;-74
2023/01/30 03:11:51;;;;;;;32.50;14.43;;;;;;;-0.60;100.00;100975.97;20888531;28;20472;-72
2023/01/30 03:22:10;;;;;;;30.52;14.50;;;;;;;-0.39;100.00;100986.19;20897712;28;20049;-72
2023/01/30 03:32:29;;;;;;;37.88;15.55;;;;;;;-0.47;100.00;101014.22;20889897;28;20065;-71
2023/01/30 03:42:47;;;;;;;31.33;14.45;;;;;;;-0.55;100.00;101006.19;20891510;28;20136;-72
2023/01/30 03:53:06;;;;;;;33.53;14.82;;;;;;;-0.45;100.00;101004.84;20891676;28;20048;-72
2023/01/30 04:03:25;;;;;;;31.35;14.80;;;;;;;-0.40;100.00;100985.31;20892968;28;20049;-73
2023/01/30 04:13:27;;;;;;;33.05;13.82;;;;;;;-0.34;100.00;100993.25;20888485;28;20053;-71
2023/01/30 04:23:28;;;;;;;31.58;13.77;;;;;;;-0.30;100.00;101001.97;20891633;28;20060;-72
2023/01/30 04:33:29;;;;;;;28.02;12.90;;;;;;;-0.28;100.00;100997.78;20887524;28;20056;-72
2023/01/30 04:43:30;;;;;;;26.95;13.30;;;;;;;-0.23;100.00;100983.38;20887278;28;20115;-71
2023/01/30 04:53:32;;;;;;;29.63;13.57;;;;;;;-0.17;100.00;100983.59;20887260;28;20056;-72
2023/01/30 05:03:51;;;;;;;28.15;13.38;;;;;;;-0.08;100.00;100936.72;20887433;28;20052;-72
2023/01/30 05:14:09;;;;;;;26.92;13.63;;;;;;;-0.07;100.00;100933.34;20884346;28;20044;-72
2023/01/30 05:24:28;;;;;;;29.00;12.88;;;;;;;-0.06;100.00;100909.34;20885439;28;20524;-72
2023/01/30 05:34:47;;;;;;;26.17;13.07;;;;;;;-0.13;100.00;100918.56;20901493;23;20041;-69
2023/01/30 05:45:06;;;;;;;25.88;12.20;;;;;;;-0.02;100.00;100918.94;20895563;28;20049;-67
2023/01/30 05:55:07;;;;;;;25.33;11.55;;;;;;;0.03;100.00;100914.81;20899884;28;20488;-67
2023/01/30 06:05:08;;;;;;;30.50;13.25;;;;;;;-0.06;100.00;100889.63;20894363;28;20045;-68
2023/01/30 06:15:09;;;;;;;27.33;13.15;;;;;;;-0.13;100.00;100894.50;20898751;28;20497;-68
2023/01/30 06:25:11;;;;;;;28.50;13.18;;;;;;;-0.26;100.00;100891.50;20897300;28;20049;-68
2023/01/30 06:35:12;;;;;;;31.05;13.90;;;;;;;-0.25;100.00;100902.66;20896997;28;20072;-68
2023/01/30 06:45:13;;;;;;;26.52;12.38;;;;;;;-0.24;100.00;100903.53;20897013;28;20044;-67
2023/01/30 06:55:15;;;;;;;33.45;13.95;;;;;;;-0.16;100.00;100945.88;20895713;28;20463;-68
2023/01/30 07:05:16;;;;;;;28.48;13.63;;;;;;;-0.16;100.00;100964.75;20898883;28;20059;-68
2023/01/30 07:15:18;;;;;;;29.05;14.18;;;;;;;-0.07;100.00;100980.53;20894536;28;20391;-68
2023/01/30 07:25:20;;;;;;;29.33;13.32;;;;;;;-0.03;100.00;100976.38;20893678;28;20049;-69
2023/01/30 07:35:21;;;;;;;31.10;13.93;;;;;;;-0.02;100.00;100926.66;20886890;28;20587;-69
2023/01/30 07:45:41;;;;;;;29.38;15.07;;;;;;;-0.16;100.00;100894.41;20888976;28;20086;-68
2023/01/30 07:56:00;;;;;;;35.55;15.15;;;;;;;-0.10;100.00;100917.75;20913494;28;20052;-68
2023/01/30 08:06:19;;;;;;;31.42;14.77;;;;;;;-0.12;100.00;100907.44;20909190;28;20099;-68
2023/01/30 08:16:38;;;;;;;30.60;14.30;;;;;;;-0.15;100.00;100901.28;20927304;28;20049;-68
2023/01/30 08:26:57;;;;;;;28.85;12.98;;;;;;;-0.02;100.00;100891.47;20916555;28;20143;-69
2023/01/30 08:36:58;;;;;;;30.55;14.25;;;;;;;0.12;100.00;100898.81;20889483;28;20056;-69
2023/01/30 08:46:59;;;;;;;30.85;14.32;;;;;;;0.23;100.00;100884.59;20888799;28;20049;-69
2023/01/30 08:57:01;;;;;;;26.92;12.73;;;;;;;0.22;100.00;100859.66;20889242;28;20283;-69
2023/01/30 09:07:02;;;;;;;29.58;12.93;;;;;;;0.52;100.00;100870.09;20887591;28;20052;-69
2023/01/30 09:17:03;;;;;;;29.35;12.65;;;;;;;0.92;100.00;100879.13;20893794;28;20053;-69
2023/01/30 09:27:05;;;;;;;25.58;12.50;;;;;;;0.80;100.00;100870.97;20903484;28;20048;-68
2023/01/30 09:37:24;;;;;;;26.23;12.02;;;;;;;0.92;100.00;100848.19;20898620;28;20049;-68
2023/01/30 09:47:42;;;;;;;21.98;10.60;;;;;;;1.10;100.00;100829.78;20900345;28;20053;-68
2023/01/30 09:58:01;;;;;;;22.75;11.45;;;;;;;1.19;100.00;100843.81;20899871;28;20044;-69
2023/01/30 10:08:20;;;;;;;23.38;10.93;;;;;;;1.40;100.00;100845.28;20895652;28;20724;-69
2023/01/30 10:18:21;;;;;;;28.33;13.02;;;;;;;1.32;100.00;100851.94;20896451;28;20049;-68
2023/01/30 10:28:23;;;;;;;24.35;11.60;;;;;;;1.34;100.00;100839.94;20889830;28;20557;-68
2023/01/30 10:38:24;;;;;;;26.67;11.68;;;;;;;1.23;100.00;100826.72;20853173;28;20410;-69
2023/01/30 10:48:25;;;;;;;27.02;12.23;;;;;;;1.50;100.00;100842.13;20845070;28;20049;-68
2023/01/30 10:58:44;;;;;;;24.92;12.98;;;;;;;1.29;100.00;100842.38;20849112;28;20041;-68
2023/01/30 11:09:02;;;;;;;27.50;12.93;;;;;;;1.23;100.00;100844.78;20843400;28;20045;-69
2023/01/30 11:19:21;;;;;;;27.63;12.52;;;;;;;1.33;100.00;100818.41;20843039;28;20361;-68
2023/01/30 11:29:40;;;;;;;29.80;14.02;;;;;;;1.43;100.00;100814.38;20851203;28;20057;-69
2023/01/30 11:39:42;;;;;;;33.08;14.85;;;;;;;1.24;100.00;100829.34;20886520;28;20045;-69
2023/01/30 11:49:45;;;;;;;29.20;13.75;;;;;;;1.22;100.00;100815.53;20889470;28;20532;-69
2023/01/30 12:00:07;;;;;;;26.35;13.00;;;;;;;1.46;100.00;100827.38;20886471;28;20126;-68
2023/01/30 12:10:10;;;;;;;;;;;;;;;1.53;100.00;100800.91;20886483;28;20052;-69
2023/01/30 12:20:12;;;;;;;29.30;13.43;;;;;;;1.74;100.00;100796.34;20886274;28;19952;-68
2023/01/30 12:30:31;;;;;;;31.48;13.80;;;;;;;1.92;100.00;100802.81;20883414;28;20120;-69
2023/01/30 12:40:32;;;;;;;27.67;13.10;;;;;;;1.88;100.00;100811.31;20896975;23;20375;-74
2023/01/30 12:50:34;;;;;;;28.40;12.38;;;;;;;1.85;100.00;100809.50;20684069;28;20109;-73
2023/01/30 13:00:41;;;;;;;26.45;12.45;;;;;;;2.01;100.00;100828.84;20770305;23;20049;-82
2023/01/30 13:10:42;;;;;;;24.30;11.63;;;;;;;2.18;100.00;100814.66;20921370;28;20045;-84
2023/01/30 13:20:43;;;;;;;24.67;10.93;;;;;;;2.25;100.00;100806.25;20919574;28;20382;-84
2023/01/30 13:31:03;;;;;;;23.98;10.55;;;;;;;2.28;100.00;100821.81;20903089;28;20044;-82
2023/01/30 13:41:22;;;;;;;21.20;10.85;;;;;;;2.29;100.00;100839.03;20969910;28;20041;-84
2023/01/30 13:51:41;;;;;;;19.20;9.60;;;;;;;2.24;100.00;100861.31;20928050;28;20494;-84
2023/01/30 14:02:00;;;;;;;20.52;9.98;;;;;;;2.26;100.00;100887.22;20929543;28;20670;-82
2023/01/30 14:12:19;;;;;;;20.45;9.30;;;;;;;2.44;100.00;100897.13;20909933;28;20072;-83
2023/01/30 14:22:21;;;;;;;18.23;8.35;;;;;;;2.58;100.00;100894.03;20908932;28;20560;-83
2023/01/30 14:32:22;;;;;;;19.95;9.25;;;;;;;2.66;100.00;100881.31;20910381;28;20044;-82
2023/01/30 14:42:24;;;;;;;17.33;8.30;;;;;;;2.81;100.00;100904.94;20929102;28;20102;-83
2023/01/30 14:52:25;;;;;;;15.10;8.02;;;;;;;2.80;100.00;100910.94;20897338;28;20071;-83
2023/01/30 15:02:26;;;;;;;14.82;7.65;;;;;;;2.89;100.00;100924.94;20922090;28;20053;-82
2023/01/30 15:12:45;;;;;;;15.35;7.50;;;;;;;2.84;100.00;100917.09;20851040;28;20061;-81
2023/01/30 15:23:06;;;;;;;16.70;7.05;;;;;;;2.90;100.00;100942.22;20841403;28;20041;-83
2023/01/30 15:33:26;;;;;;;13.65;6.63;;;;;;;2.77;100.00;100946.19;20840541;28;20053;-83
2023/01/30 15:43:32;;;;;;;12.30;6.40;;;;;;;2.79;100.00;100976.44;20857250;28;20484;-84
2023/01/30 15:53:33;;;;;;;14.93;7.85;;;;;;;2.67;100.00;100983.88;20866804;28;20049;-82
2023/01/30 16:03:36;;;;;;;14.63;6.70;;;;;;;2.67;100.00;101003.69;20794037;23;20049;-72
2023/01/30 16:13:38;;;;;;;14.90;7.38;;;;;;;2.72;100.00;100997.78;20861068;23;20440;-71
2023/01/30 16:23:39;;;;;;;13.65;7.60;;;;;;;2.70;100.00;101015.00;20758510;28;20401;-69
2023/01/30 16:33:41;;;;;;;15.85;7.25;;;;;;;2.74;100.00;101046.97;20790389;28;20056;-70
2023/01/30 16:43:43;;;;;;;15.60;7.65;;;;;;;2.76;100.00;101059.09;20840883;28;20049;-71
2023/01/30 16:53:44;;;;;;;13.98;7.43;;;;;;;2.63;100.00;101067.34;20840515;28;20513;-69
2023/01/30 17:03:46;;;;;;;15.13;7.57;;;;;;;2.54;100.00;101073.19;20842825;28;20143;-68
2023/01/30 17:13:47;;;;;;;17.17;7.72;;;;;;;2.54;100.00;101077.47;20836535;28;20048;-69
2023/01/30 17:23:48;;;;;;;15.23;7.45;;;;;;;2.36;100.00;101066.63;20840402;28;20041;-70
2023/01/30 17:34:07;;;;;;;15.73;7.70;;;;;;;2.30;100.00;101078.53;20831274;28;20128;-68
2023/01/30 17:44:25;;;;;;;17.92;8.90;;;;;;;2.18;100.00;101108.28;20861921;28;20060;-68
2023/01/30 17:54:28;;;;;;;20.15;9.35;;;;;;;2.20;100.00;101130.75;20863620;28;20057;-68
2023/01/30 18:04:30;;;;;;;19.27;9.60;;;;;;;2.00;100.00;101134.44;20848045;28;20085;-69
2023/01/30 18:14:31;;;;;;;27.27;14.45;;;;;;;1.91;100.00;101144.47;20857242;28;20276;-69
2023/01/30 18:35:10;;;;;;;25.33;13.60;;;;;;;1.87;100.00;101191.69;20916121;28;20045;-81
2023/01/30 18:45:29;;;;;;;22.45;11.07;;;;;;;2.09;100.00;101201.88;20923699;28;20119;-80
2023/01/30 18:55:49;;;;;;;17.80;9.55;;;;;;;2.33;100.00;101209.50;20968551;28;20040;-81
2023/01/30 19:06:07;;;;;;;18.77;9.15;;;;;;;2.38;100.00;101210.53;20951848;28;20049;-80
2023/01/30 19:16:26;;;;;;;16.40;8.60;;;;;;;2.43;100.00;101213.25;20915242;28;20392;-80
2023/01/30 19:26:45;;;;;;;19.45;10.73;;;;;;;2.64;100.00;101237.19;20944421;28;20493;-81
2023/01/30 19:37:05;;;;;;;22.95;10.27;;;;;;;2.58;100.00;101249.91;20898285;28;20116;-80
2023/01/30 19:47:24;;;;;;;18.92;9.15;;;;;;;2.75;100.00;101248.72;20975759;28;20061;-79
2023/01/30 19:57:25;;;;;;;19.08;9.52;;;;;;;2.90;100.00;101265.50;20960876;28;20057;-80
2023/01/30 20:07:27;;;;;;;22.25;11.57;;;;;;;2.98;100.00;101271.78;20904840;28;20075;-81
2023/01/30 20:17:29;;;;;;;19.13;9.80;;;;;;;3.04;100.00;101278.00;20894696;28;20048;-80
2023/01/30 20:27:31;;;;;;;19.58;9.77;;;;;;;2.90;100.00;101293.97;20895307;28;20087;-81
2023/01/30 20:37:32;;;;;;;31.95;13.90;;;;;;;2.80;100.00;101298.84;20914900;28;20100;-81
2023/01/30 20:47:51;;;;;;;18.00;10.60;;;;;;;2.62;100.00;101310.34;20924459;28;20490;-81
2023/01/30 20:58:11;;;;;;;20.88;11.43;;;;;;;2.63;100.00;101315.56;20935963;28;20045;-81
2023/01/30 21:08:30;;;;;;;18.83;10.50;;;;;;;2.57;100.00;101356.72;20905403;28;20049;-80
2023/01/30 21:18:49;;;;;;;19.73;10.80;;;;;;;2.65;100.00;101350.09;20937488;28;20060;-83
2023/01/30 21:29:08;;;;;;;21.20;10.77;;;;;;;2.58;100.00;101359.34;20916881;28;20402;-82
2023/01/30 21:49:48;;;;;;;27.65;10.35;;;;;;;2.59;100.00;101393.88;20869572;28;20071;-83
2023/01/30 21:59:49;;;;;;;22.98;11.13;;;;;;;2.50;100.00;101404.78;20842412;28;20049;-81
2023/01/30 22:09:50;;;;;;;22.95;11.07;;;;;;;2.46;100.00;101404.63;20828219;28;20111;-82
2023/01/30 22:19:52;;;;;;;24.50;11.38;;;;;;;2.44;100.00;101414.03;20810902;28;20041;-82
2023/01/30 22:29:53;;;;;;;23.45;10.90;;;;;;;2.45;100.00;101401.16;20816679;28;20073;-83
2023/01/30 22:40:15;;;;;;;23.27;11.07;;;;;;;2.47;100.00;101406.38;20730098;28;20042;-82
2023/01/30 22:50:34;;;;;;;25.98;11.90;;;;;;;2.49;100.00;101417.63;20769579;28;20414;-81
2023/01/30 23:00:52;;;;;;;22.52;11.60;;;;;;;2.45;100.00;101408.06;20735798;28;20046;-82
2023/01/30 23:11:11;;;;;;;23.55;12.00;;;;;;;2.57;100.00;101416.19;20764008;28;20041;-81
2023/01/30 23:21:30;;;;;;;27.35;12.30;;;;;;;2.58;100.00;101421.41;20762205;28;20434;-83
2023/01/30 23:31:49;;;;;;;25.70;11.23;;;;;;;2.53;100.00;101409.16;20782358;28;20520;-83
2023/01/30 23:42:08;;;;;;;26.52;12.10;;;;;;;2.29;100.00;101384.25;20740525;28;20050;-82
2023/01/30 23:52:12;;;;;;;27.40;12.82;;;;;;;2.22;100.00;101374.56;20837726;23;20040;-69
